sensor_id;sensor_type;location;lat;lon;timestamp;P1;durP1;ratioP1;P2;durP2;ratioP2
73898;SDS011;62234;50.892;12.724;2023-11-18T00:00:31;4.60;;;3.22;;
73898;SDS011;62234;50.892;12.724;2023-11-18T00:02:58;5.18;;;3.65;;
73898;SDS011;62234;50.892;12.724;2023-11-18T00:05:24;4.72;;;2.95;;
73898;SDS011;62234;50.892;12.724;2023-11-18T00:07:50;3.85;;;3.05;;
73898;SDS011;62234;50.892;12.724;2023-11-18T00:10:16;4.93;;;2.95;;
73898;SDS011;62234;50.892;12.724;2023-11-18T00:12:42;5.13;;;3.47;;
73898;SDS011;62234;50.892;12.724;2023-11-18T00:15:08;6.18;;;3.17;;
73898;SDS011;62234;50.892;12.724;2023-11-18T00:17:36;3.63;;;2.60;;
73898;SDS011;62234;50.892;12.724;2023-11-18T00:20:02;5.95;;;2.47;;
73898;SDS011;62234;50.892;12.724;2023-11-18T00:22:33;2.28;;;2.00;;
73898;SDS011;62234;50.892;12.724;2023-11-18T00:24:59;4.22;;;2.03;;
73898;SDS011;62234;50.892;12.724;2023-11-18T00:27:25;4.10;;;2.30;;
73898;SDS011;62234;50.892;12.724;2023-11-18T00:29:51;4.32;;;2.80;;
73898;SDS011;62234;50.892;12.724;2023-11-18T00:32:18;4.40;;;2.70;;
73898;SDS011;62234;50.892;12.724;2023-11-18T00:34:44;3.30;;;2.47;;
73898;SDS011;62234;50.892;12.724;2023-11-18T00:37:10;3.88;;;2.33;;
73898;SDS011;62234;50.892;12.724;2023-11-18T00:39:36;5.18;;;2.78;;
73898;SDS011;62234;50.892;12.724;2023-11-18T00:42:02;4.38;;;2.67;;
73898;SDS011;62234;50.892;12.724;2023-11-18T00:44:28;3.83;;;2.40;;
73898;SDS011;62234;50.892;12.724;2023-11-18T00:46:54;3.90;;;2.30;;
73898;SDS011;62234;50.892;12.724;2023-11-18T00:49:22;4.30;;;2.20;;
73898;SDS011;62234;50.892;12.724;2023-11-18T00:51:48;4.57;;;2.92;;
73898;SDS011;62234;50.892;12.724;2023-11-18T00:54:14;3.97;;;2.90;;
73898;SDS011;62234;50.892;12.724;2023-11-18T00:56:40;4.07;;;2.67;;
73898;SDS011;62234;50.892;12.724;2023-11-18T00:59:06;4.65;;;2.42;;
73898;SDS011;62234;50.892;12.724;2023-11-18T01:01:32;2.17;;;1.92;;
73898;SDS011;62234;50.892;12.724;2023-11-18T01:03:58;3.20;;;2.45;;
73898;SDS011;62234;50.892;12.724;2023-11-18T01:06:24;3.47;;;2.90;;
73898;SDS011;62234;50.892;12.724;2023-11-18T01:08:50;3.83;;;2.70;;
73898;SDS011;62234;50.892;12.724;2023-11-18T01:11:16;3.10;;;2.55;;
73898;SDS011;62234;50.892;12.724;2023-11-18T01:13:47;5.97;;;3.03;;
73898;SDS011;62234;50.892;12.724;2023-11-18T01:16:13;4.35;;;2.13;;
73898;SDS011;62234;50.892;12.724;2023-11-18T01:18:39;4.43;;;2.65;;
73898;SDS011;62234;50.892;12.724;2023-11-18T01:21:05;4.22;;;2.47;;
73898;SDS011;62234;50.892;12.724;2023-11-18T01:23:34;9.05;;;3.03;;
73898;SDS011;62234;50.892;12.724;2023-11-18T01:26:00;4.72;;;2.88;;
73898;SDS011;62234;50.892;12.724;2023-11-18T01:28:26;3.78;;;2.45;;
73898;SDS011;62234;50.892;12.724;2023-11-18T01:30:54;3.63;;;2.40;;
73898;SDS011;62234;50.892;12.724;2023-11-18T01:33:20;4.18;;;2.63;;
73898;SDS011;62234;50.892;12.724;2023-11-18T01:35:47;4.35;;;2.33;;
73898;SDS011;62234;50.892;12.724;2023-11-18T01:38:13;5.97;;;2.65;;
73898;SDS011;62234;50.892;12.724;2023-11-18T01:40:39;6.38;;;3.70;;
73898;SDS011;62234;50.892;12.724;2023-11-18T01:43:08;4.82;;;2.97;;
73898;SDS011;62234;50.892;12.724;2023-11-18T01:45:38;4.00;;;3.15;;
73898;SDS011;62234;50.892;12.724;2023-11-18T01:48:05;4.47;;;2.55;;
73898;SDS011;62234;50.892;12.724;2023-11-18T01:50:34;5.97;;;3.22;;
73898;SDS011;62234;50.892;12.724;2023-11-18T01:53:02;6.28;;;2.45;;
73898;SDS011;62234;50.892;12.724;2023-11-18T01:55:28;4.75;;;2.85;;
73898;SDS011;62234;50.892;12.724;2023-11-18T01:57:54;5.20;;;3.22;;
73898;SDS011;62234;50.892;12.724;2023-11-18T02:00:21;3.85;;;2.80;;
73898;SDS011;62234;50.892;12.724;2023-11-18T02:02:48;6.80;;;2.67;;
73898;SDS011;62234;50.892;12.724;2023-11-18T02:05:14;5.63;;;3.03;;
73898;SDS011;62234;50.892;12.724;2023-11-18T02:07:41;4.10;;;2.47;;
73898;SDS011;62234;50.892;12.724;2023-11-18T02:10:08;4.53;;;2.58;;
73898;SDS011;62234;50.892;12.724;2023-11-18T02:12:41;4.57;;;2.40;;
73898;SDS011;62234;50.892;12.724;2023-11-18T02:15:08;6.10;;;2.58;;
73898;SDS011;62234;50.892;12.724;2023-11-18T02:17:37;7.40;;;2.25;;
73898;SDS011;62234;50.892;12.724;2023-11-18T02:20:04;4.25;;;2.58;;
73898;SDS011;62234;50.892;12.724;2023-11-18T02:22:40;5.53;;;2.53;;
73898;SDS011;62234;50.892;12.724;2023-11-18T02:25:06;4.75;;;2.50;;
73898;SDS011;62234;50.892;12.724;2023-11-18T02:27:35;5.28;;;2.53;;
73898;SDS011;62234;50.892;12.724;2023-11-18T02:30:01;4.75;;;2.40;;
73898;SDS011;62234;50.892;12.724;2023-11-18T02:32:33;4.55;;;2.85;;
73898;SDS011;62234;50.892;12.724;2023-11-18T02:37:30;3.88;;;2.58;;
73898;SDS011;62234;50.892;12.724;2023-11-18T02:40:00;6.43;;;3.15;;
73898;SDS011;62234;50.892;12.724;2023-11-18T02:42:28;5.35;;;2.80;;
73898;SDS011;62234;50.892;12.724;2023-11-18T02:44:55;4.53;;;2.83;;
73898;SDS011;62234;50.892;12.724;2023-11-18T02:47:24;3.78;;;2.45;;
73898;SDS011;62234;50.892;12.724;2023-11-18T02:49:54;5.15;;;2.80;;
73898;SDS011;62234;50.892;12.724;2023-11-18T02:52:31;4.38;;;2.75;;
73898;SDS011;62234;50.892;12.724;2023-11-18T02:54:58;3.78;;;2.80;;
73898;SDS011;62234;50.892;12.724;2023-11-18T02:57:24;3.95;;;2.90;;
73898;SDS011;62234;50.892;12.724;2023-11-18T02:59:50;5.47;;;2.83;;
73898;SDS011;62234;50.892;12.724;2023-11-18T03:02:16;6.15;;;3.75;;
73898;SDS011;62234;50.892;12.724;2023-11-18T03:04:45;5.53;;;2.92;;
73898;SDS011;62234;50.892;12.724;2023-11-18T03:07:11;5.60;;;3.50;;
73898;SDS011;62234;50.892;12.724;2023-11-18T03:09:37;4.72;;;2.90;;
73898;SDS011;62234;50.892;12.724;2023-11-18T03:12:05;8.32;;;3.70;;
73898;SDS011;62234;50.892;12.724;2023-11-18T03:14:32;6.00;;;3.42;;
73898;SDS011;62234;50.892;12.724;2023-11-18T03:16:59;4.63;;;3.53;;
73898;SDS011;62234;50.892;12.724;2023-11-18T03:19:25;6.45;;;3.78;;
73898;SDS011;62234;50.892;12.724;2023-11-18T03:21:51;6.47;;;3.63;;
73898;SDS011;62234;50.892;12.724;2023-11-18T03:24:18;5.43;;;3.40;;
73898;SDS011;62234;50.892;12.724;2023-11-18T03:26:44;7.80;;;3.35;;
73898;SDS011;62234;50.892;12.724;2023-11-18T03:29:10;6.70;;;3.42;;
73898;SDS011;62234;50.892;12.724;2023-11-18T03:31:38;6.88;;;3.65;;
73898;SDS011;62234;50.892;12.724;2023-11-18T03:34:04;8.60;;;3.67;;
73898;SDS011;62234;50.892;12.724;2023-11-18T03:36:30;6.35;;;3.30;;
73898;SDS011;62234;50.892;12.724;2023-11-18T03:38:56;7.22;;;3.85;;
73898;SDS011;62234;50.892;12.724;2023-11-18T03:41:22;8.80;;;3.50;;
73898;SDS011;62234;50.892;12.724;2023-11-18T03:43:48;5.60;;;3.50;;
73898;SDS011;62234;50.892;12.724;2023-11-18T03:46:14;11.93;;;5.03;;
73898;SDS011;62234;50.892;12.724;2023-11-18T03:48:41;8.05;;;4.20;;
73898;SDS011;62234;50.892;12.724;2023-11-18T03:51:09;7.63;;;4.05;;
73898;SDS011;62234;50.892;12.724;2023-11-18T03:53:35;6.22;;;3.97;;
73898;SDS011;62234;50.892;12.724;2023-11-18T03:56:01;6.85;;;3.55;;
73898;SDS011;62234;50.892;12.724;2023-11-18T03:58:27;7.72;;;4.40;;
73898;SDS011;62234;50.892;12.724;2023-11-18T04:00:55;6.32;;;3.92;;
73898;SDS011;62234;50.892;12.724;2023-11-18T04:03:22;6.38;;;3.58;;
73898;SDS011;62234;50.892;12.724;2023-11-18T04:05:48;10.75;;;4.50;;
73898;SDS011;62234;50.892;12.724;2023-11-18T04:08:14;7.68;;;4.25;;
73898;SDS011;62234;50.892;12.724;2023-11-18T04:10:40;8.48;;;3.83;;
73898;SDS011;62234;50.892;12.724;2023-11-18T04:13:06;8.70;;;4.68;;
73898;SDS011;62234;50.892;12.724;2023-11-18T04:15:32;6.80;;;4.47;;
73898;SDS011;62234;50.892;12.724;2023-11-18T04:18:00;6.10;;;4.18;;
73898;SDS011;62234;50.892;12.724;2023-11-18T04:20:26;6.53;;;4.07;;
73898;SDS011;62234;50.892;12.724;2023-11-18T04:22:52;10.45;;;5.25;;
73898;SDS011;62234;50.892;12.724;2023-11-18T04:25:19;8.02;;;4.78;;
73898;SDS011;62234;50.892;12.724;2023-11-18T04:27:52;10.60;;;4.57;;
73898;SDS011;62234;50.892;12.724;2023-11-18T04:30:18;6.35;;;3.92;;
73898;SDS011;62234;50.892;12.724;2023-11-18T04:32:44;8.48;;;4.55;;
73898;SDS011;62234;50.892;12.724;2023-11-18T04:35:10;13.32;;;4.95;;
73898;SDS011;62234;50.892;12.724;2023-11-18T04:37:37;10.18;;;5.07;;
73898;SDS011;62234;50.892;12.724;2023-11-18T04:40:05;9.77;;;4.78;;
73898;SDS011;62234;50.892;12.724;2023-11-18T04:42:34;9.27;;;5.38;;
73898;SDS011;62234;50.892;12.724;2023-11-18T04:45:02;10.98;;;5.15;;
73898;SDS011;62234;50.892;12.724;2023-11-18T04:47:28;10.77;;;5.10;;
73898;SDS011;62234;50.892;12.724;2023-11-18T04:49:55;10.90;;;4.70;;
73898;SDS011;62234;50.892;12.724;2023-11-18T04:52:21;7.95;;;4.55;;
73898;SDS011;62234;50.892;12.724;2023-11-18T04:54:46;9.95;;;4.95;;
73898;SDS011;62234;50.892;12.724;2023-11-18T04:57:13;9.80;;;5.43;;
73898;SDS011;62234;50.892;12.724;2023-11-18T04:59:39;11.48;;;5.47;;
73898;SDS011;62234;50.892;12.724;2023-11-18T05:02:04;6.70;;;3.58;;
73898;SDS011;62234;50.892;12.724;2023-11-18T05:04:31;10.65;;;5.32;;
73898;SDS011;62234;50.892;12.724;2023-11-18T05:06:57;9.07;;;4.20;;
73898;SDS011;62234;50.892;12.724;2023-11-18T05:09:23;9.60;;;5.00;;
73898;SDS011;62234;50.892;12.724;2023-11-18T05:11:49;10.82;;;5.05;;
73898;SDS011;62234;50.892;12.724;2023-11-18T05:14:15;9.70;;;4.78;;
73898;SDS011;62234;50.892;12.724;2023-11-18T05:16:41;9.18;;;4.80;;
73898;SDS011;62234;50.892;12.724;2023-11-18T05:19:07;11.35;;;5.75;;
73898;SDS011;62234;50.892;12.724;2023-11-18T05:46:03;9.57;;;4.65;;
73898;SDS011;62234;50.892;12.724;2023-11-18T05:48:49;14.40;;;5.78;;
73898;SDS011;62234;50.892;12.724;2023-11-18T05:51:18;11.82;;;5.20;;
73898;SDS011;62234;50.892;12.724;2023-11-18T05:53:45;10.68;;;5.22;;
73898;SDS011;62234;50.892;12.724;2023-11-18T05:56:14;10.07;;;5.03;;
73898;SDS011;62234;50.892;12.724;2023-11-18T05:58:43;9.57;;;5.25;;
73898;SDS011;62234;50.892;12.724;2023-11-18T06:01:09;9.65;;;4.97;;
73898;SDS011;62234;50.892;12.724;2023-11-18T06:03:36;8.90;;;4.68;;
73898;SDS011;62234;50.892;12.724;2023-11-18T06:06:04;10.02;;;5.57;;
73898;SDS011;62234;50.892;12.724;2023-11-18T06:08:32;10.05;;;5.53;;
73898;SDS011;62234;50.892;12.724;2023-11-18T06:10:57;12.27;;;5.68;;
73898;SDS011;62234;50.892;12.724;2023-11-18T06:13:23;15.43;;;5.85;;
73898;SDS011;62234;50.892;12.724;2023-11-18T06:15:49;10.68;;;5.00;;
73898;SDS011;62234;50.892;12.724;2023-11-18T06:18:16;12.75;;;5.40;;
73898;SDS011;62234;50.892;12.724;2023-11-18T06:20:43;11.07;;;4.97;;
73898;SDS011;62234;50.892;12.724;2023-11-18T06:23:09;8.82;;;5.10;;
73898;SDS011;62234;50.892;12.724;2023-11-18T06:25:35;10.68;;;4.63;;
73898;SDS011;62234;50.892;12.724;2023-11-18T06:28:01;8.80;;;4.55;;
73898;SDS011;62234;50.892;12.724;2023-11-18T06:30:28;13.27;;;5.10;;
73898;SDS011;62234;50.892;12.724;2023-11-18T06:32:55;9.82;;;4.38;;
73898;SDS011;62234;50.892;12.724;2023-11-18T06:35:21;8.95;;;4.80;;
73898;SDS011;62234;50.892;12.724;2023-11-18T06:37:47;7.35;;;4.30;;
73898;SDS011;62234;50.892;12.724;2023-11-18T06:43:16;10.90;;;4.15;;
73898;SDS011;62234;50.892;12.724;2023-11-18T06:45:43;8.52;;;4.65;;
73898;SDS011;62234;50.892;12.724;2023-11-18T06:48:10;7.80;;;4.38;;
73898;SDS011;62234;50.892;12.724;2023-11-18T06:50:36;15.38;;;5.05;;
73898;SDS011;62234;50.892;12.724;2023-11-18T06:53:04;10.60;;;5.10;;
73898;SDS011;62234;50.892;12.724;2023-11-18T06:55:33;8.98;;;4.60;;
73898;SDS011;62234;50.892;12.724;2023-11-18T06:58:01;8.45;;;5.07;;
73898;SDS011;62234;50.892;12.724;2023-11-18T07:00:27;10.10;;;4.15;;
73898;SDS011;62234;50.892;12.724;2023-11-18T07:02:53;13.07;;;4.60;;
73898;SDS011;62234;50.892;12.724;2023-11-18T07:05:19;13.52;;;5.00;;
73898;SDS011;62234;50.892;12.724;2023-11-18T07:07:49;9.57;;;4.85;;
73898;SDS011;62234;50.892;12.724;2023-11-18T07:10:15;8.88;;;4.90;;
73898;SDS011;62234;50.892;12.724;2023-11-18T07:15:52;10.68;;;4.78;;
73898;SDS011;62234;50.892;12.724;2023-11-18T07:18:22;11.50;;;4.47;;
73898;SDS011;62234;50.892;12.724;2023-11-18T07:20:50;9.38;;;4.05;;
73898;SDS011;62234;50.892;12.724;2023-11-18T07:23:17;7.07;;;4.00;;
73898;SDS011;62234;50.892;12.724;2023-11-18T07:25:44;8.57;;;3.92;;
73898;SDS011;62234;50.892;12.724;2023-11-18T07:28:10;10.35;;;4.40;;
73898;SDS011;62234;50.892;12.724;2023-11-18T07:30:36;6.03;;;3.83;;
73898;SDS011;62234;50.892;12.724;2023-11-18T07:33:03;11.00;;;4.53;;
73898;SDS011;62234;50.892;12.724;2023-11-18T07:35:30;7.97;;;4.80;;
73898;SDS011;62234;50.892;12.724;2023-11-18T07:37:56;7.35;;;4.70;;
73898;SDS011;62234;50.892;12.724;2023-11-18T07:40:23;7.30;;;4.55;;
73898;SDS011;62234;50.892;12.724;2023-11-18T07:42:55;9.45;;;4.10;;
73898;SDS011;62234;50.892;12.724;2023-11-18T07:45:22;8.90;;;4.57;;
73898;SDS011;62234;50.892;12.724;2023-11-18T07:47:51;12.15;;;5.63;;
73898;SDS011;62234;50.892;12.724;2023-11-18T07:50:19;10.02;;;4.43;;
73898;SDS011;62234;50.892;12.724;2023-11-18T07:52:46;9.40;;;4.25;;
73898;SDS011;62234;50.892;12.724;2023-11-18T07:55:13;10.02;;;5.65;;
73898;SDS011;62234;50.892;12.724;2023-11-18T07:57:45;7.68;;;4.20;;
73898;SDS011;62234;50.892;12.724;2023-11-18T08:00:16;7.97;;;4.18;;
73898;SDS011;62234;50.892;12.724;2023-11-18T08:02:42;8.82;;;5.00;;
73898;SDS011;62234;50.892;12.724;2023-11-18T08:05:09;12.40;;;5.07;;
73898;SDS011;62234;50.892;12.724;2023-11-18T08:07:40;9.65;;;5.38;;
73898;SDS011;62234;50.892;12.724;2023-11-18T08:10:06;11.70;;;5.00;;
73898;SDS011;62234;50.892;12.724;2023-11-18T08:15:44;9.45;;;4.68;;
73898;SDS011;62234;50.892;12.724;2023-11-18T08:18:12;9.95;;;6.32;;
73898;SDS011;62234;50.892;12.724;2023-11-18T08:20:38;12.93;;;6.47;;
73898;SDS011;62234;50.892;12.724;2023-11-18T08:23:05;10.32;;;5.43;;
73898;SDS011;62234;50.892;12.724;2023-11-18T08:25:31;10.82;;;6.40;;
73898;SDS011;62234;50.892;12.724;2023-11-18T08:28:00;12.07;;;5.35;;
73898;SDS011;62234;50.892;12.724;2023-11-18T08:30:26;13.48;;;5.15;;
73898;SDS011;62234;50.892;12.724;2023-11-18T08:32:52;8.50;;;4.63;;
73898;SDS011;62234;50.892;12.724;2023-11-18T08:35:18;15.30;;;5.38;;
73898;SDS011;62234;50.892;12.724;2023-11-18T08:37:47;10.30;;;5.35;;
73898;SDS011;62234;50.892;12.724;2023-11-18T08:40:13;10.35;;;5.35;;
73898;SDS011;62234;50.892;12.724;2023-11-18T08:42:50;10.75;;;5.18;;
73898;SDS011;62234;50.892;12.724;2023-11-18T08:45:17;8.63;;;4.30;;
73898;SDS011;62234;50.892;12.724;2023-11-18T08:47:44;6.22;;;4.38;;
73898;SDS011;62234;50.892;12.724;2023-11-18T08:50:30;9.88;;;5.25;;
73898;SDS011;62234;50.892;12.724;2023-11-18T08:52:56;11.35;;;5.72;;
73898;SDS011;62234;50.892;12.724;2023-11-18T08:55:29;8.02;;;4.18;;
73898;SDS011;62234;50.892;12.724;2023-11-18T08:58:05;9.75;;;5.05;;
73898;SDS011;62234;50.892;12.724;2023-11-18T09:00:41;11.88;;;5.55;;
73898;SDS011;62234;50.892;12.724;2023-11-18T09:03:13;8.15;;;4.32;;
73898;SDS011;62234;50.892;12.724;2023-11-18T09:05:49;8.30;;;4.75;;
73898;SDS011;62234;50.892;12.724;2023-11-18T09:08:29;7.85;;;5.05;;
73898;SDS011;62234;50.892;12.724;2023-11-18T09:11:00;8.38;;;5.03;;
73898;SDS011;62234;50.892;12.724;2023-11-18T09:13:26;9.90;;;4.72;;
73898;SDS011;62234;50.892;12.724;2023-11-18T09:15:55;10.02;;;5.60;;
73898;SDS011;62234;50.892;12.724;2023-11-18T09:18:22;9.52;;;5.22;;
73898;SDS011;62234;50.892;12.724;2023-11-18T09:20:49;8.98;;;5.07;;
73898;SDS011;62234;50.892;12.724;2023-11-18T09:23:17;9.65;;;5.60;;
73898;SDS011;62234;50.892;12.724;2023-11-18T09:34:54;14.02;;;6.25;;
73898;SDS011;62234;50.892;12.724;2023-11-18T09:37:20;9.85;;;5.50;;
73898;SDS011;62234;50.892;12.724;2023-11-18T09:39:48;13.88;;;6.15;;
73898;SDS011;62234;50.892;12.724;2023-11-18T09:42:20;13.40;;;6.32;;
73898;SDS011;62234;50.892;12.724;2023-11-18T09:44:56;10.55;;;5.57;;
73898;SDS011;62234;50.892;12.724;2023-11-18T09:47:36;12.52;;;5.80;;
73898;SDS011;62234;50.892;12.724;2023-11-18T09:50:06;12.00;;;5.85;;
73898;SDS011;62234;50.892;12.724;2023-11-18T09:52:35;12.30;;;5.72;;
73898;SDS011;62234;50.892;12.724;2023-11-18T09:55:03;10.70;;;6.63;;
73898;SDS011;62234;50.892;12.724;2023-11-18T09:57:40;10.85;;;5.43;;
73898;SDS011;62234;50.892;12.724;2023-11-18T10:00:10;11.35;;;6.10;;
73898;SDS011;62234;50.892;12.724;2023-11-18T10:02:51;12.35;;;6.20;;
73898;SDS011;62234;50.892;12.724;2023-11-18T10:05:17;12.27;;;6.10;;
73898;SDS011;62234;50.892;12.724;2023-11-18T10:07:46;13.45;;;6.00;;
73898;SDS011;62234;50.892;12.724;2023-11-18T10:10:21;10.60;;;5.95;;
73898;SDS011;62234;50.892;12.724;2023-11-18T10:12:48;8.68;;;5.72;;
73898;SDS011;62234;50.892;12.724;2023-11-18T10:15:26;12.20;;;6.40;;
73898;SDS011;62234;50.892;12.724;2023-11-18T10:17:53;13.32;;;6.85;;
73898;SDS011;62234;50.892;12.724;2023-11-18T10:23:15;10.75;;;5.25;;
73898;SDS011;62234;50.892;12.724;2023-11-18T10:25:54;15.48;;;6.57;;
73898;SDS011;62234;50.892;12.724;2023-11-18T10:28:35;14.88;;;6.82;;
73898;SDS011;62234;50.892;12.724;2023-11-18T10:31:05;13.23;;;6.50;;
73898;SDS011;62234;50.892;12.724;2023-11-18T10:33:35;12.95;;;6.20;;
73898;SDS011;62234;50.892;12.724;2023-11-18T10:36:01;11.15;;;6.18;;
73898;SDS011;62234;50.892;12.724;2023-11-18T10:38:30;10.18;;;5.72;;
73898;SDS011;62234;50.892;12.724;2023-11-18T10:40:57;10.48;;;6.40;;
73898;SDS011;62234;50.892;12.724;2023-11-18T10:43:37;10.27;;;6.63;;
73898;SDS011;62234;50.892;12.724;2023-11-18T10:46:10;11.00;;;5.72;;
73898;SDS011;62234;50.892;12.724;2023-11-18T10:48:43;14.82;;;7.05;;
73898;SDS011;62234;50.892;12.724;2023-11-18T10:51:09;12.20;;;6.90;;
73898;SDS011;62234;50.892;12.724;2023-11-18T10:53:48;10.82;;;6.65;;
73898;SDS011;62234;50.892;12.724;2023-11-18T10:56:36;9.50;;;6.10;;
73898;SDS011;62234;50.892;12.724;2023-11-18T10:59:05;8.95;;;5.82;;
73898;SDS011;62234;50.892;12.724;2023-11-18T11:01:32;12.02;;;5.57;;
73898;SDS011;62234;50.892;12.724;2023-11-18T11:03:58;11.15;;;5.90;;
73898;SDS011;62234;50.892;12.724;2023-11-18T11:06:25;10.65;;;5.72;;
73898;SDS011;62234;50.892;12.724;2023-11-18T11:09:08;10.32;;;5.65;;
73898;SDS011;62234;50.892;12.724;2023-11-18T11:11:45;8.80;;;6.07;;
73898;SDS011;62234;50.892;12.724;2023-11-18T11:14:11;8.48;;;5.20;;
73898;SDS011;62234;50.892;12.724;2023-11-18T11:16:44;7.55;;;5.05;;
73898;SDS011;62234;50.892;12.724;2023-11-18T11:19:20;7.32;;;5.55;;
73898;SDS011;62234;50.892;12.724;2023-11-18T11:21:52;11.43;;;6.30;;
73898;SDS011;62234;50.892;12.724;2023-11-18T11:24:40;8.73;;;6.15;;
73898;SDS011;62234;50.892;12.724;2023-11-18T11:29:53;5.85;;;4.30;;
73898;SDS011;62234;50.892;12.724;2023-11-18T11:35:07;7.75;;;4.88;;
73898;SDS011;62234;50.892;12.724;2023-11-18T11:37:42;6.53;;;5.13;;
73898;SDS011;62234;50.892;12.724;2023-11-18T11:40:12;7.43;;;4.68;;
73898;SDS011;62234;50.892;12.724;2023-11-18T11:42:50;6.00;;;4.97;;
73898;SDS011;62234;50.892;12.724;2023-11-18T11:45:24;8.98;;;4.60;;
73898;SDS011;62234;50.892;12.724;2023-11-18T11:47:55;7.93;;;4.63;;
73898;SDS011;62234;50.892;12.724;2023-11-18T11:50:43;5.85;;;3.78;;
73898;SDS011;62234;50.892;12.724;2023-11-18T11:53:12;6.32;;;4.05;;
73898;SDS011;62234;50.892;12.724;2023-11-18T11:55:45;7.15;;;5.07;;
73898;SDS011;62234;50.892;12.724;2023-11-18T11:58:25;5.38;;;4.15;;
73898;SDS011;62234;50.892;12.724;2023-11-18T12:00:51;7.30;;;4.50;;
73898;SDS011;62234;50.892;12.724;2023-11-18T12:03:19;9.32;;;4.78;;
73898;SDS011;62234;50.892;12.724;2023-11-18T12:05:47;6.30;;;4.38;;
73898;SDS011;62234;50.892;12.724;2023-11-18T12:17:28;5.20;;;3.55;;
73898;SDS011;62234;50.892;12.724;2023-11-18T12:19:56;8.27;;;4.30;;
73898;SDS011;62234;50.892;12.724;2023-11-18T12:23:02;9.13;;;4.70;;
73898;SDS011;62234;50.892;12.724;2023-11-18T12:27:45;6.10;;;3.97;;
73898;SDS011;62234;50.892;12.724;2023-11-18T12:33:06;5.07;;;2.85;;
73898;SDS011;62234;50.892;12.724;2023-11-18T12:40:59;4.82;;;3.38;;
73898;SDS011;62234;50.892;12.724;2023-11-18T12:48:49;5.95;;;3.85;;
73898;SDS011;62234;50.892;12.724;2023-11-18T12:51:16;7.57;;;4.28;;
73898;SDS011;62234;50.892;12.724;2023-11-18T12:53:49;6.65;;;3.92;;
73898;SDS011;62234;50.892;12.724;2023-11-18T12:56:24;4.97;;;4.15;;
73898;SDS011;62234;50.892;12.724;2023-11-18T12:58:51;6.65;;;4.53;;
73898;SDS011;62234;50.892;12.724;2023-11-18T13:01:17;7.93;;;4.20;;
73898;SDS011;62234;50.892;12.724;2023-11-18T13:03:44;5.40;;;4.35;;
73898;SDS011;62234;50.892;12.724;2023-11-18T13:06:10;6.00;;;4.22;;
73898;SDS011;62234;50.892;12.724;2023-11-18T13:08:40;5.18;;;4.35;;
73898;SDS011;62234;50.892;12.724;2023-11-18T13:11:06;4.53;;;3.78;;
73898;SDS011;62234;50.892;12.724;2023-11-18T13:13:37;7.20;;;4.47;;
73898;SDS011;62234;50.892;12.724;2023-11-18T13:16:04;5.63;;;3.50;;
73898;SDS011;62234;50.892;12.724;2023-11-18T13:18:41;4.43;;;3.78;;
73898;SDS011;62234;50.892;12.724;2023-11-18T13:21:07;5.68;;;3.55;;
73898;SDS011;62234;50.892;12.724;2023-11-18T13:23:36;4.35;;;3.38;;
73898;SDS011;62234;50.892;12.724;2023-11-18T13:26:01;4.72;;;3.58;;
73898;SDS011;62234;50.892;12.724;2023-11-18T13:28:30;5.22;;;3.67;;
73898;SDS011;62234;50.892;12.724;2023-11-18T13:30:57;6.28;;;4.00;;
73898;SDS011;62234;50.892;12.724;2023-11-18T13:33:23;8.20;;;3.85;;
73898;SDS011;62234;50.892;12.724;2023-11-18T13:35:49;5.72;;;3.47;;
73898;SDS011;62234;50.892;12.724;2023-11-18T13:38:15;6.70;;;4.00;;
73898;SDS011;62234;50.892;12.724;2023-11-18T13:43:09;5.95;;;3.80;;
73898;SDS011;62234;50.892;12.724;2023-11-18T13:45:35;6.40;;;4.32;;
73898;SDS011;62234;50.892;12.724;2023-11-18T13:48:01;11.52;;;4.88;;
73898;SDS011;62234;50.892;12.724;2023-11-18T13:50:27;7.50;;;4.85;;
73898;SDS011;62234;50.892;12.724;2023-11-18T13:52:53;6.47;;;4.47;;
73898;SDS011;62234;50.892;12.724;2023-11-18T13:55:20;5.65;;;3.70;;
73898;SDS011;62234;50.892;12.724;2023-11-18T13:57:53;7.13;;;5.45;;
73898;SDS011;62234;50.892;12.724;2023-11-18T14:00:21;10.75;;;5.30;;
73898;SDS011;62234;50.892;12.724;2023-11-18T14:02:48;6.07;;;4.03;;
73898;SDS011;62234;50.892;12.724;2023-11-18T14:05:17;3.90;;;3.22;;
73898;SDS011;62234;50.892;12.724;2023-11-18T14:07:45;6.07;;;3.53;;
73898;SDS011;62234;50.892;12.724;2023-11-18T14:16:21;7.13;;;4.72;;
73898;SDS011;62234;50.892;12.724;2023-11-18T14:18:48;5.43;;;4.70;;
73898;SDS011;62234;50.892;12.724;2023-11-18T14:21:14;4.22;;;3.75;;
73898;SDS011;62234;50.892;12.724;2023-11-18T14:23:40;4.45;;;3.50;;
73898;SDS011;62234;50.892;12.724;2023-11-18T14:38:24;8.32;;;6.18;;
73898;SDS011;62234;50.892;12.724;2023-11-18T14:40:50;7.20;;;5.22;;
73898;SDS011;62234;50.892;12.724;2023-11-18T14:43:16;7.38;;;5.15;;
73898;SDS011;62234;50.892;12.724;2023-11-18T14:45:43;7.90;;;5.15;;
73898;SDS011;62234;50.892;12.724;2023-11-18T14:48:09;9.27;;;4.90;;
73898;SDS011;62234;50.892;12.724;2023-11-18T14:50:35;5.20;;;4.63;;
73898;SDS011;62234;50.892;12.724;2023-11-18T14:53:01;5.05;;;4.38;;
73898;SDS011;62234;50.892;12.724;2023-11-18T14:55:28;9.70;;;6.10;;
73898;SDS011;62234;50.892;12.724;2023-11-18T14:57:54;14.40;;;8.55;;
73898;SDS011;62234;50.892;12.724;2023-11-18T15:00:20;9.55;;;6.43;;
73898;SDS011;62234;50.892;12.724;2023-11-18T15:02:51;12.80;;;7.90;;
73898;SDS011;62234;50.892;12.724;2023-11-18T15:05:18;12.15;;;6.05;;
73898;SDS011;62234;50.892;12.724;2023-11-18T15:07:53;12.77;;;6.88;;
73898;SDS011;62234;50.892;12.724;2023-11-18T15:10:20;12.88;;;7.40;;
73898;SDS011;62234;50.892;12.724;2023-11-18T15:12:47;10.30;;;6.97;;
73898;SDS011;62234;50.892;12.724;2023-11-18T15:15:13;11.73;;;8.75;;
73898;SDS011;62234;50.892;12.724;2023-11-18T15:17:47;11.60;;;7.45;;
73898;SDS011;62234;50.892;12.724;2023-11-18T15:20:16;14.48;;;8.10;;
73898;SDS011;62234;50.892;12.724;2023-11-18T15:22:48;12.50;;;6.93;;
73898;SDS011;62234;50.892;12.724;2023-11-18T15:25:14;12.98;;;6.93;;
73898;SDS011;62234;50.892;12.724;2023-11-18T15:27:42;14.15;;;7.90;;
73898;SDS011;62234;50.892;12.724;2023-11-18T15:30:10;17.35;;;8.93;;
73898;SDS011;62234;50.892;12.724;2023-11-18T15:32:40;18.08;;;8.45;;
73898;SDS011;62234;50.892;12.724;2023-11-18T15:35:06;15.40;;;7.35;;
73898;SDS011;62234;50.892;12.724;2023-11-18T15:37:34;13.65;;;7.22;;
73898;SDS011;62234;50.892;12.724;2023-11-18T15:40:00;12.43;;;6.88;;
73898;SDS011;62234;50.892;12.724;2023-11-18T15:42:35;10.88;;;5.47;;
73898;SDS011;62234;50.892;12.724;2023-11-18T15:45:01;7.85;;;5.40;;
73898;SDS011;62234;50.892;12.724;2023-11-18T15:47:28;13.32;;;7.07;;
73898;SDS011;62234;50.892;12.724;2023-11-18T15:49:54;18.23;;;9.85;;
73898;SDS011;62234;50.892;12.724;2023-11-18T15:52:20;45.95;;;18.23;;
73898;SDS011;62234;50.892;12.724;2023-11-18T15:54:46;49.03;;;19.63;;
73898;SDS011;62234;50.892;12.724;2023-11-18T15:57:12;39.40;;;16.38;;
73898;SDS011;62234;50.892;12.724;2023-11-18T15:59:38;34.72;;;15.82;;
73898;SDS011;62234;50.892;12.724;2023-11-18T16:02:04;25.05;;;11.30;;
73898;SDS011;62234;50.892;12.724;2023-11-18T16:04:30;16.60;;;9.30;;
73898;SDS011;62234;50.892;12.724;2023-11-18T16:13:07;25.55;;;12.77;;
73898;SDS011;62234;50.892;12.724;2023-11-18T16:15:33;33.42;;;14.57;;
73898;SDS011;62234;50.892;12.724;2023-11-18T16:17:59;26.17;;;13.90;;
73898;SDS011;62234;50.892;12.724;2023-11-18T16:20:29;16.15;;;9.13;;
73898;SDS011;62234;50.892;12.724;2023-11-18T16:22:58;8.25;;;4.82;;